sensor_id;sensor_type;location;lat;lon;timestamp;P1;durP1;ratioP1;P2;durP2;ratioP2
56991;SDS011;42885;49.754;18.636;2022-12-20T00:00:11;9.78;;;5.83;;
56991;SDS011;42885;49.754;18.636;2022-12-20T00:03:02;12.18;;;6.47;;
56991;SDS011;42885;49.754;18.636;2022-12-20T00:05:52;11.43;;;6.42;;
56991;SDS011;42885;49.754;18.636;2022-12-20T00:08:42;11.80;;;6.90;;
56991;SDS011;42885;49.754;18.636;2022-12-20T00:11:31;12.68;;;6.62;;
56991;SDS011;42885;49.754;18.636;2022-12-20T00:14:21;10.75;;;6.30;;
56991;SDS011;42885;49.754;18.636;2022-12-20T00:17:11;13.13;;;6.55;;
56991;SDS011;42885;49.754;18.636;2022-12-20T00:20:00;11.80;;;6.40;;
56991;SDS011;42885;49.754;18.636;2022-12-20T00:22:50;11.57;;;6.65;;
56991;SDS011;42885;49.754;18.636;2022-12-20T00:25:39;12.65;;;6.50;;
56991;SDS011;42885;49.754;18.636;2022-12-20T00:28:29;11.48;;;6.83;;
56991;SDS011;42885;49.754;18.636;2022-12-20T00:31:20;10.45;;;6.40;;
56991;SDS011;42885;49.754;18.636;2022-12-20T00:34:09;11.90;;;6.60;;
56991;SDS011;42885;49.754;18.636;2022-12-20T00:36:59;13.72;;;6.50;;
56991;SDS011;42885;49.754;18.636;2022-12-20T00:39:49;11.33;;;6.40;;
56991;SDS011;42885;49.754;18.636;2022-12-20T00:42:38;12.65;;;6.97;;
56991;SDS011;42885;49.754;18.636;2022-12-20T00:45:27;13.32;;;7.08;;
56991;SDS011;42885;49.754;18.636;2022-12-20T00:48:17;13.90;;;7.47;;
56991;SDS011;42885;49.754;18.636;2022-12-20T00:51:14;12.43;;;6.75;;
56991;SDS011;42885;49.754;18.636;2022-12-20T00:54:06;11.78;;;6.95;;
56991;SDS011;42885;49.754;18.636;2022-12-20T00:56:55;11.80;;;6.80;;
56991;SDS011;42885;49.754;18.636;2022-12-20T00:59:45;13.18;;;6.72;;
56991;SDS011;42885;49.754;18.636;2022-12-20T01:02:34;11.40;;;7.42;;
56991;SDS011;42885;49.754;18.636;2022-12-20T01:05:22;11.88;;;6.92;;
56991;SDS011;42885;49.754;18.636;2022-12-20T01:08:12;12.15;;;6.97;;
56991;SDS011;42885;49.754;18.636;2022-12-20T01:11:09;14.07;;;7.37;;
56991;SDS011;42885;49.754;18.636;2022-12-20T01:14:13;12.95;;;6.70;;
56991;SDS011;42885;49.754;18.636;2022-12-20T01:17:03;15.43;;;7.40;;
56991;SDS011;42885;49.754;18.636;2022-12-20T01:19:54;15.13;;;7.55;;
56991;SDS011;42885;49.754;18.636;2022-12-20T01:22:43;13.35;;;7.35;;
56991;SDS011;42885;49.754;18.636;2022-12-20T01:25:32;13.25;;;7.78;;
56991;SDS011;42885;49.754;18.636;2022-12-20T01:28:22;13.18;;;7.20;;
56991;SDS011;42885;49.754;18.636;2022-12-20T01:31:13;11.70;;;6.60;;
56991;SDS011;42885;49.754;18.636;2022-12-20T01:34:04;17.57;;;7.80;;
56991;SDS011;42885;49.754;18.636;2022-12-20T01:36:54;14.27;;;7.43;;
56991;SDS011;42885;49.754;18.636;2022-12-20T01:39:44;15.18;;;7.97;;
56991;SDS011;42885;49.754;18.636;2022-12-20T01:42:33;13.30;;;6.90;;
56991;SDS011;42885;49.754;18.636;2022-12-20T01:45:26;13.53;;;7.90;;
56991;SDS011;42885;49.754;18.636;2022-12-20T01:48:20;14.57;;;7.20;;
56991;SDS011;42885;49.754;18.636;2022-12-20T01:51:13;15.60;;;8.13;;
56991;SDS011;42885;49.754;18.636;2022-12-20T01:54:14;13.85;;;7.67;;
56991;SDS011;42885;49.754;18.636;2022-12-20T01:57:05;13.45;;;7.65;;
56991;SDS011;42885;49.754;18.636;2022-12-20T01:59:52;14.80;;;7.87;;
56991;SDS011;42885;49.754;18.636;2022-12-20T02:02:49;13.15;;;7.20;;
56991;SDS011;42885;49.754;18.636;2022-12-20T02:05:36;14.83;;;8.23;;
56991;SDS011;42885;49.754;18.636;2022-12-20T02:08:26;13.65;;;7.67;;
56991;SDS011;42885;49.754;18.636;2022-12-20T02:11:34;12.33;;;7.27;;
56991;SDS011;42885;49.754;18.636;2022-12-20T02:14:55;12.43;;;7.12;;
56991;SDS011;42885;49.754;18.636;2022-12-20T02:21:23;14.47;;;8.08;;
56991;SDS011;42885;49.754;18.636;2022-12-20T02:24:32;12.75;;;7.25;;
56991;SDS011;42885;49.754;18.636;2022-12-20T02:30:43;13.18;;;7.15;;
56991;SDS011;42885;49.754;18.636;2022-12-20T02:33:34;13.03;;;7.03;;
56991;SDS011;42885;49.754;18.636;2022-12-20T02:36:24;11.10;;;6.42;;
56991;SDS011;42885;49.754;18.636;2022-12-20T02:39:14;14.80;;;7.70;;
56991;SDS011;42885;49.754;18.636;2022-12-20T02:42:05;13.40;;;7.92;;
56991;SDS011;42885;49.754;18.636;2022-12-20T02:44:59;14.68;;;7.58;;
56991;SDS011;42885;49.754;18.636;2022-12-20T02:48:06;15.05;;;8.23;;
56991;SDS011;42885;49.754;18.636;2022-12-20T02:50:57;14.45;;;7.65;;
56991;SDS011;42885;49.754;18.636;2022-12-20T02:53:49;11.78;;;6.85;;
56991;SDS011;42885;49.754;18.636;2022-12-20T02:56:49;10.95;;;6.55;;
56991;SDS011;42885;49.754;18.636;2022-12-20T03:00:03;12.67;;;7.13;;
56991;SDS011;42885;49.754;18.636;2022-12-20T03:02:54;14.30;;;8.20;;
56991;SDS011;42885;49.754;18.636;2022-12-20T03:06:02;16.15;;;8.40;;
56991;SDS011;42885;49.754;18.636;2022-12-20T03:08:52;13.10;;;7.00;;
56991;SDS011;42885;49.754;18.636;2022-12-20T03:11:41;13.75;;;7.40;;
56991;SDS011;42885;49.754;18.636;2022-12-20T03:14:31;14.13;;;7.42;;
56991;SDS011;42885;49.754;18.636;2022-12-20T03:17:20;12.95;;;6.97;;
56991;SDS011;42885;49.754;18.636;2022-12-20T03:20:10;13.87;;;7.50;;
56991;SDS011;42885;49.754;18.636;2022-12-20T03:22:59;13.37;;;8.20;;
56991;SDS011;42885;49.754;18.636;2022-12-20T03:25:48;14.20;;;7.33;;
56991;SDS011;42885;49.754;18.636;2022-12-20T03:28:52;14.10;;;7.60;;
56991;SDS011;42885;49.754;18.636;2022-12-20T03:31:43;16.42;;;8.83;;
56991;SDS011;42885;49.754;18.636;2022-12-20T03:34:32;18.17;;;9.48;;
56991;SDS011;42885;49.754;18.636;2022-12-20T03:37:22;16.27;;;8.93;;
56991;SDS011;42885;49.754;18.636;2022-12-20T03:40:12;15.95;;;8.55;;
56991;SDS011;42885;49.754;18.636;2022-12-20T03:43:03;16.95;;;9.48;;
56991;SDS011;42885;49.754;18.636;2022-12-20T03:45:52;17.77;;;8.95;;
56991;SDS011;42885;49.754;18.636;2022-12-20T03:48:42;13.50;;;8.33;;
56991;SDS011;42885;49.754;18.636;2022-12-20T03:51:32;14.85;;;8.58;;
56991;SDS011;42885;49.754;18.636;2022-12-20T03:54:22;16.23;;;9.15;;
56991;SDS011;42885;49.754;18.636;2022-12-20T03:57:22;14.47;;;8.33;;
56991;SDS011;42885;49.754;18.636;2022-12-20T04:00:12;16.62;;;8.88;;
56991;SDS011;42885;49.754;18.636;2022-12-20T04:03:04;17.90;;;9.40;;
56991;SDS011;42885;49.754;18.636;2022-12-20T04:05:53;16.90;;;9.15;;
56991;SDS011;42885;49.754;18.636;2022-12-20T04:08:43;17.07;;;8.90;;
56991;SDS011;42885;49.754;18.636;2022-12-20T04:11:34;15.83;;;7.85;;
56991;SDS011;42885;49.754;18.636;2022-12-20T04:14:27;18.98;;;8.68;;
56991;SDS011;42885;49.754;18.636;2022-12-20T04:17:16;16.27;;;8.68;;
56991;SDS011;42885;49.754;18.636;2022-12-20T04:20:06;17.87;;;9.53;;
56991;SDS011;42885;49.754;18.636;2022-12-20T04:23:07;26.17;;;12.43;;
56991;SDS011;42885;49.754;18.636;2022-12-20T04:25:57;22.77;;;10.50;;
56991;SDS011;42885;49.754;18.636;2022-12-20T04:28:47;21.02;;;10.53;;
56991;SDS011;42885;49.754;18.636;2022-12-20T04:31:37;19.98;;;11.20;;
56991;SDS011;42885;49.754;18.636;2022-12-20T04:34:28;22.90;;;11.00;;
56991;SDS011;42885;49.754;18.636;2022-12-20T04:37:17;23.20;;;12.63;;
56991;SDS011;42885;49.754;18.636;2022-12-20T04:40:08;28.35;;;13.00;;
56991;SDS011;42885;49.754;18.636;2022-12-20T04:43:05;27.27;;;13.88;;
56991;SDS011;42885;49.754;18.636;2022-12-20T04:45:55;23.98;;;13.55;;
56991;SDS011;42885;49.754;18.636;2022-12-20T04:48:45;19.98;;;10.95;;
56991;SDS011;42885;49.754;18.636;2022-12-20T04:51:35;21.75;;;10.60;;
56991;SDS011;42885;49.754;18.636;2022-12-20T04:54:25;24.45;;;12.78;;
56991;SDS011;42885;49.754;18.636;2022-12-20T04:57:16;30.72;;;16.07;;
56991;SDS011;42885;49.754;18.636;2022-12-20T05:00:06;23.73;;;12.15;;
56991;SDS011;42885;49.754;18.636;2022-12-20T05:02:57;20.27;;;10.45;;
56991;SDS011;42885;49.754;18.636;2022-12-20T05:05:47;18.50;;;9.90;;
56991;SDS011;42885;49.754;18.636;2022-12-20T05:08:37;22.90;;;11.65;;
56991;SDS011;42885;49.754;18.636;2022-12-20T05:11:28;21.52;;;10.43;;
56991;SDS011;42885;49.754;18.636;2022-12-20T05:14:17;17.62;;;9.10;;
56991;SDS011;42885;49.754;18.636;2022-12-20T05:17:07;19.33;;;10.13;;
56991;SDS011;42885;49.754;18.636;2022-12-20T05:19:57;21.87;;;9.63;;
56991;SDS011;42885;49.754;18.636;2022-12-20T05:22:46;23.35;;;11.63;;
56991;SDS011;42885;49.754;18.636;2022-12-20T05:25:54;25.12;;;12.85;;
56991;SDS011;42885;49.754;18.636;2022-12-20T05:29:02;19.13;;;10.40;;
56991;SDS011;42885;49.754;18.636;2022-12-20T05:31:54;20.12;;;11.22;;
56991;SDS011;42885;49.754;18.636;2022-12-20T05:34:44;18.65;;;10.13;;
56991;SDS011;42885;49.754;18.636;2022-12-20T05:37:35;20.20;;;9.88;;
56991;SDS011;42885;49.754;18.636;2022-12-20T05:40:26;19.95;;;10.75;;
56991;SDS011;42885;49.754;18.636;2022-12-20T05:43:16;20.30;;;10.60;;
56991;SDS011;42885;49.754;18.636;2022-12-20T05:46:09;19.20;;;10.43;;
56991;SDS011;42885;49.754;18.636;2022-12-20T05:49:00;18.05;;;10.32;;
56991;SDS011;42885;49.754;18.636;2022-12-20T05:51:50;19.87;;;9.55;;
56991;SDS011;42885;49.754;18.636;2022-12-20T05:54:43;18.23;;;10.13;;
56991;SDS011;42885;49.754;18.636;2022-12-20T05:57:34;17.27;;;9.10;;
56991;SDS011;42885;49.754;18.636;2022-12-20T06:00:25;17.92;;;9.20;;
56991;SDS011;42885;49.754;18.636;2022-12-20T06:03:15;122.95;;;72.65;;
56991;SDS011;42885;49.754;18.636;2022-12-20T06:06:05;21.42;;;10.78;;
56991;SDS011;42885;49.754;18.636;2022-12-20T06:08:55;18.48;;;9.83;;
56991;SDS011;42885;49.754;18.636;2022-12-20T06:11:46;17.48;;;9.35;;
56991;SDS011;42885;49.754;18.636;2022-12-20T06:14:34;15.95;;;7.97;;
56991;SDS011;42885;49.754;18.636;2022-12-20T06:17:23;14.45;;;7.55;;
56991;SDS011;42885;49.754;18.636;2022-12-20T06:20:14;15.00;;;8.58;;
56991;SDS011;42885;49.754;18.636;2022-12-20T06:23:05;15.27;;;7.97;;
56991;SDS011;42885;49.754;18.636;2022-12-20T06:25:57;14.13;;;8.50;;
56991;SDS011;42885;49.754;18.636;2022-12-20T06:28:49;14.73;;;8.23;;
56991;SDS011;42885;49.754;18.636;2022-12-20T06:31:46;17.73;;;8.85;;
56991;SDS011;42885;49.754;18.636;2022-12-20T06:34:36;20.95;;;11.12;;
56991;SDS011;42885;49.754;18.636;2022-12-20T06:37:26;21.15;;;11.28;;
56991;SDS011;42885;49.754;18.636;2022-12-20T06:40:15;23.30;;;11.65;;
56991;SDS011;42885;49.754;18.636;2022-12-20T06:43:05;22.35;;;10.58;;
56991;SDS011;42885;49.754;18.636;2022-12-20T06:45:54;30.43;;;14.68;;
56991;SDS011;42885;49.754;18.636;2022-12-20T06:48:44;29.33;;;15.17;;
56991;SDS011;42885;49.754;18.636;2022-12-20T06:51:34;25.50;;;14.10;;
56991;SDS011;42885;49.754;18.636;2022-12-20T06:54:25;26.48;;;13.65;;
56991;SDS011;42885;49.754;18.636;2022-12-20T06:57:15;25.95;;;13.78;;
56991;SDS011;42885;49.754;18.636;2022-12-20T07:00:06;29.18;;;13.10;;
56991;SDS011;42885;49.754;18.636;2022-12-20T07:02:57;25.88;;;13.15;;
56991;SDS011;42885;49.754;18.636;2022-12-20T07:05:51;22.58;;;11.00;;
56991;SDS011;42885;49.754;18.636;2022-12-20T07:08:41;27.67;;;14.40;;
56991;SDS011;42885;49.754;18.636;2022-12-20T07:11:31;24.80;;;12.93;;
56991;SDS011;42885;49.754;18.636;2022-12-20T07:14:21;24.70;;;11.65;;
56991;SDS011;42885;49.754;18.636;2022-12-20T07:17:10;24.43;;;13.70;;
56991;SDS011;42885;49.754;18.636;2022-12-20T07:20:00;19.97;;;10.60;;
56991;SDS011;42885;49.754;18.636;2022-12-20T07:22:50;26.35;;;13.50;;
56991;SDS011;42885;49.754;18.636;2022-12-20T07:25:39;27.87;;;14.70;;
56991;SDS011;42885;49.754;18.636;2022-12-20T07:28:29;35.50;;;17.98;;
56991;SDS011;42885;49.754;18.636;2022-12-20T07:31:18;22.67;;;12.30;;
56991;SDS011;42885;49.754;18.636;2022-12-20T07:34:07;27.37;;;13.57;;
56991;SDS011;42885;49.754;18.636;2022-12-20T07:36:57;38.38;;;19.10;;
56991;SDS011;42885;49.754;18.636;2022-12-20T07:39:46;46.92;;;23.52;;
56991;SDS011;42885;49.754;18.636;2022-12-20T07:42:35;48.20;;;25.25;;
56991;SDS011;42885;49.754;18.636;2022-12-20T07:45:25;33.25;;;18.52;;
56991;SDS011;42885;49.754;18.636;2022-12-20T07:48:15;34.00;;;19.92;;
56991;SDS011;42885;49.754;18.636;2022-12-20T07:51:06;64.87;;;34.10;;
56991;SDS011;42885;49.754;18.636;2022-12-20T07:57:21;25.43;;;14.20;;
56991;SDS011;42885;49.754;18.636;2022-12-20T08:00:12;22.98;;;12.53;;
56991;SDS011;42885;49.754;18.636;2022-12-20T08:03:06;24.82;;;13.88;;
56991;SDS011;42885;49.754;18.636;2022-12-20T08:05:58;27.07;;;15.32;;
56991;SDS011;42885;49.754;18.636;2022-12-20T08:08:52;25.25;;;14.43;;
56991;SDS011;42885;49.754;18.636;2022-12-20T08:11:43;26.80;;;14.87;;
56991;SDS011;42885;49.754;18.636;2022-12-20T08:14:35;27.55;;;14.98;;
56991;SDS011;42885;49.754;18.636;2022-12-20T08:17:25;28.87;;;16.80;;
56991;SDS011;42885;49.754;18.636;2022-12-20T08:20:14;31.85;;;16.73;;
56991;SDS011;42885;49.754;18.636;2022-12-20T08:23:04;32.40;;;17.56;;
56991;SDS011;42885;49.754;18.636;2022-12-20T08:25:54;32.28;;;18.60;;
56991;SDS011;42885;49.754;18.636;2022-12-20T08:28:44;32.30;;;18.57;;
56991;SDS011;42885;49.754;18.636;2022-12-20T08:31:37;34.23;;;18.48;;
56991;SDS011;42885;49.754;18.636;2022-12-20T08:34:28;31.48;;;18.10;;
56991;SDS011;42885;49.754;18.636;2022-12-20T08:37:18;29.18;;;15.40;;
56991;SDS011;42885;49.754;18.636;2022-12-20T08:40:07;47.00;;;20.32;;
56991;SDS011;42885;49.754;18.636;2022-12-20T08:42:57;54.30;;;24.45;;
56991;SDS011;42885;49.754;18.636;2022-12-20T08:45:53;35.38;;;18.12;;
56991;SDS011;42885;49.754;18.636;2022-12-20T08:48:43;49.65;;;26.45;;
56991;SDS011;42885;49.754;18.636;2022-12-20T08:51:32;57.53;;;30.27;;
56991;SDS011;42885;49.754;18.636;2022-12-20T08:54:21;32.73;;;17.48;;
56991;SDS011;42885;49.754;18.636;2022-12-20T08:57:11;46.02;;;23.85;;
56991;SDS011;42885;49.754;18.636;2022-12-20T09:00:00;42.43;;;23.05;;
56991;SDS011;42885;49.754;18.636;2022-12-20T09:02:50;39.50;;;22.70;;
56991;SDS011;42885;49.754;18.636;2022-12-20T09:05:43;35.73;;;18.85;;
56991;SDS011;42885;49.754;18.636;2022-12-20T09:08:36;37.83;;;20.93;;
56991;SDS011;42885;49.754;18.636;2022-12-20T09:11:26;30.35;;;17.00;;
56991;SDS011;42885;49.754;18.636;2022-12-20T09:14:16;34.60;;;21.13;;
56991;SDS011;42885;49.754;18.636;2022-12-20T09:17:06;42.60;;;22.67;;
56991;SDS011;42885;49.754;18.636;2022-12-20T09:19:54;31.40;;;17.30;;
56991;SDS011;42885;49.754;18.636;2022-12-20T09:22:43;32.75;;;19.15;;
56991;SDS011;42885;49.754;18.636;2022-12-20T09:25:33;35.35;;;19.70;;
56991;SDS011;42885;49.754;18.636;2022-12-20T09:28:24;35.88;;;20.08;;
56991;SDS011;42885;49.754;18.636;2022-12-20T09:31:14;42.83;;;22.25;;
56991;SDS011;42885;49.754;18.636;2022-12-20T09:34:04;31.83;;;18.10;;
56991;SDS011;42885;49.754;18.636;2022-12-20T09:36:54;34.92;;;18.42;;
56991;SDS011;42885;49.754;18.636;2022-12-20T09:39:44;38.23;;;18.45;;
56991;SDS011;42885;49.754;18.636;2022-12-20T09:42:36;31.42;;;18.98;;
56991;SDS011;42885;49.754;18.636;2022-12-20T09:45:26;31.97;;;16.93;;
56991;SDS011;42885;49.754;18.636;2022-12-20T09:48:22;29.70;;;17.30;;
56991;SDS011;42885;49.754;18.636;2022-12-20T09:51:17;27.05;;;16.55;;
56991;SDS011;42885;49.754;18.636;2022-12-20T10:00:20;25.27;;;15.37;;
56991;SDS011;42885;49.754;18.636;2022-12-20T10:03:13;29.80;;;17.52;;
56991;SDS011;42885;49.754;18.636;2022-12-20T10:16:03;35.20;;;20.17;;
56991;SDS011;42885;49.754;18.636;2022-12-20T10:19:12;35.58;;;19.25;;
56991;SDS011;42885;49.754;18.636;2022-12-20T10:28:03;33.15;;;17.50;;
56991;SDS011;42885;49.754;18.636;2022-12-20T10:30:56;34.55;;;19.10;;
56991;SDS011;42885;49.754;18.636;2022-12-20T10:33:55;25.25;;;14.33;;
56991;SDS011;42885;49.754;18.636;2022-12-20T10:36:45;22.90;;;13.80;;
56991;SDS011;42885;49.754;18.636;2022-12-20T10:39:40;33.45;;;19.25;;
56991;SDS011;42885;49.754;18.636;2022-12-20T10:42:37;33.20;;;18.37;;
56991;SDS011;42885;49.754;18.636;2022-12-20T10:45:33;31.20;;;18.00;;
56991;SDS011;42885;49.754;18.636;2022-12-20T10:48:25;33.80;;;18.90;;
56991;SDS011;42885;49.754;18.636;2022-12-20T10:51:22;42.95;;;23.65;;
56991;SDS011;42885;49.754;18.636;2022-12-20T10:54:22;43.75;;;23.10;;
56991;SDS011;42885;49.754;18.636;2022-12-20T10:57:14;36.50;;;19.57;;
56991;SDS011;42885;49.754;18.636;2022-12-20T11:00:09;34.43;;;19.63;;
56991;SDS011;42885;49.754;18.636;2022-12-20T11:03:19;33.42;;;18.35;;
56991;SDS011;42885;49.754;18.636;2022-12-20T11:05:57;25.57;;;15.10;;
56991;SDS011;42885;49.754;18.636;2022-12-20T11:08:50;25.75;;;13.72;;
56991;SDS011;42885;49.754;18.636;2022-12-20T11:11:39;24.87;;;13.40;;
56991;SDS011;42885;49.754;18.636;2022-12-20T11:14:33;21.60;;;11.53;;
56991;SDS011;42885;49.754;18.636;2022-12-20T11:17:34;20.37;;;11.83;;
56991;SDS011;42885;49.754;18.636;2022-12-20T11:20:41;19.97;;;11.40;;
56991;SDS011;42885;49.754;18.636;2022-12-20T11:32:54;18.02;;;11.20;;
56991;SDS011;42885;49.754;18.636;2022-12-20T11:36:01;24.43;;;13.75;;
56991;SDS011;42885;49.754;18.636;2022-12-20T11:38:56;24.15;;;14.28;;
56991;SDS011;42885;49.754;18.636;2022-12-20T11:41:49;19.57;;;11.90;;
56991;SDS011;42885;49.754;18.636;2022-12-20T11:44:45;17.87;;;11.40;;
56991;SDS011;42885;49.754;18.636;2022-12-20T11:47:53;18.25;;;10.30;;
56991;SDS011;42885;49.754;18.636;2022-12-20T11:53:44;22.73;;;12.33;;
56991;SDS011;42885;49.754;18.636;2022-12-20T11:56:43;17.62;;;10.78;;
56991;SDS011;42885;49.754;18.636;2022-12-20T12:02:40;18.05;;;10.55;;
56991;SDS011;42885;49.754;18.636;2022-12-20T12:05:46;19.30;;;10.88;;
56991;SDS011;42885;49.754;18.636;2022-12-20T12:08:45;23.20;;;13.50;;
56991;SDS011;42885;49.754;18.636;2022-12-20T12:11:34;20.65;;;12.88;;
56991;SDS011;42885;49.754;18.636;2022-12-20T12:14:34;22.17;;;13.20;;
56991;SDS011;42885;49.754;18.636;2022-12-20T12:24:14;31.20;;;17.97;;
56991;SDS011;42885;49.754;18.636;2022-12-20T12:27:23;34.25;;;20.12;;
56991;SDS011;42885;49.754;18.636;2022-12-20T12:30:16;28.20;;;18.55;;
56991;SDS011;42885;49.754;18.636;2022-12-20T12:33:09;30.80;;;18.30;;
56991;SDS011;42885;49.754;18.636;2022-12-20T12:42:16;30.00;;;17.90;;
56991;SDS011;42885;49.754;18.636;2022-12-20T12:45:19;28.45;;;17.20;;
56991;SDS011;42885;49.754;18.636;2022-12-20T12:48:20;31.05;;;17.92;;
56991;SDS011;42885;49.754;18.636;2022-12-20T12:51:24;30.62;;;17.23;;
56991;SDS011;42885;49.754;18.636;2022-12-20T12:54:17;23.32;;;14.20;;
56991;SDS011;42885;49.754;18.636;2022-12-20T12:57:14;29.35;;;17.00;;
56991;SDS011;42885;49.754;18.636;2022-12-20T13:00:17;28.90;;;16.65;;
56991;SDS011;42885;49.754;18.636;2022-12-20T13:02:57;31.45;;;18.02;;
56991;SDS011;42885;49.754;18.636;2022-12-20T13:05:47;30.75;;;17.62;;
56991;SDS011;42885;49.754;18.636;2022-12-20T13:08:47;21.82;;;12.75;;
56991;SDS011;42885;49.754;18.636;2022-12-20T13:11:39;22.45;;;11.83;;
56991;SDS011;42885;49.754;18.636;2022-12-20T13:20:19;27.93;;;17.50;;
56991;SDS011;42885;49.754;18.636;2022-12-20T13:26:20;31.90;;;16.90;;
56991;SDS011;42885;49.754;18.636;2022-12-20T13:28:57;26.55;;;15.40;;
56991;SDS011;42885;49.754;18.636;2022-12-20T13:31:49;28.95;;;15.53;;
56991;SDS011;42885;49.754;18.636;2022-12-20T13:34:53;35.92;;;18.57;;
56991;SDS011;42885;49.754;18.636;2022-12-20T13:37:51;31.30;;;18.37;;
56991;SDS011;42885;49.754;18.636;2022-12-20T13:40:57;36.95;;;20.27;;
56991;SDS011;42885;49.754;18.636;2022-12-20T13:43:49;35.45;;;19.15;;
56991;SDS011;42885;49.754;18.636;2022-12-20T13:46:51;35.48;;;19.20;;
56991;SDS011;42885;49.754;18.636;2022-12-20T13:49:42;33.55;;;19.15;;
56991;SDS011;42885;49.754;18.636;2022-12-20T13:52:32;34.27;;;19.48;;
56991;SDS011;42885;49.754;18.636;2022-12-20T13:55:43;36.20;;;20.80;;
56991;SDS011;42885;49.754;18.636;2022-12-20T13:58:28;38.33;;;21.73;;
56991;SDS011;42885;49.754;18.636;2022-12-20T14:01:21;39.45;;;22.37;;
56991;SDS011;42885;49.754;18.636;2022-12-20T14:04:12;37.42;;;21.68;;
56991;SDS011;42885;49.754;18.636;2022-12-20T14:07:03;44.20;;;23.73;;
56991;SDS011;42885;49.754;18.636;2022-12-20T14:10:00;43.45;;;25.77;;
56991;SDS011;42885;49.754;18.636;2022-12-20T14:12:51;39.67;;;20.73;;
56991;SDS011;42885;49.754;18.636;2022-12-20T14:15:41;39.42;;;22.60;;
56991;SDS011;42885;49.754;18.636;2022-12-20T14:18:31;37.10;;;20.12;;
56991;SDS011;42885;49.754;18.636;2022-12-20T14:21:20;44.57;;;23.57;;
56991;SDS011;42885;49.754;18.636;2022-12-20T14:24:13;38.02;;;21.42;;
56991;SDS011;42885;49.754;18.636;2022-12-20T14:27:03;45.15;;;23.45;;
56991;SDS011;42885;49.754;18.636;2022-12-20T14:29:53;45.75;;;22.87;;
56991;SDS011;42885;49.754;18.636;2022-12-20T14:32:47;38.55;;;20.65;;
56991;SDS011;42885;49.754;18.636;2022-12-20T14:35:34;36.55;;;20.75;;
56991;SDS011;42885;49.754;18.636;2022-12-20T14:38:27;37.10;;;21.63;;
56991;SDS011;42885;49.754;18.636;2022-12-20T14:44:26;34.67;;;20.00;;
56991;SDS011;42885;49.754;18.636;2022-12-20T14:47:18;38.73;;;21.27;;
56991;SDS011;42885;49.754;18.636;2022-12-20T14:50:16;36.67;;;19.47;;
56991;SDS011;42885;49.754;18.636;2022-12-20T14:53:19;40.95;;;20.72;;
56991;SDS011;42885;49.754;18.636;2022-12-20T14:56:12;38.70;;;21.10;;
56991;SDS011;42885;49.754;18.636;2022-12-20T14:59:02;42.73;;;23.00;;
56991;SDS011;42885;49.754;18.636;2022-12-20T15:01:52;43.83;;;22.85;;
56991;SDS011;42885;49.754;18.636;2022-12-20T15:04:42;45.60;;;23.32;;
56991;SDS011;42885;49.754;18.636;2022-12-20T15:07:32;42.48;;;22.05;;
56991;SDS011;42885;49.754;18.636;2022-12-20T15:10:20;39.33;;;22.15;;
56991;SDS011;42885;49.754;18.636;2022-12-20T15:13:13;45.80;;;22.42;;
56991;SDS011;42885;49.754;18.636;2022-12-20T15:16:05;106.85;;;62.90;;
56991;SDS011;42885;49.754;18.636;2022-12-20T15:19:04;53.10;;;28.77;;
56991;SDS011;42885;49.754;18.636;2022-12-20T15:21:53;49.05;;;27.82;;
56991;SDS011;42885;49.754;18.636;2022-12-20T15:24:43;48.25;;;25.15;;
56991;SDS011;42885;49.754;18.636;2022-12-20T15:27:32;46.63;;;24.90;;
56991;SDS011;42885;49.754;18.636;2022-12-20T15:30:21;50.23;;;25.50;;
56991;SDS011;42885;49.754;18.636;2022-12-20T15:33:16;46.70;;;25.60;;
56991;SDS011;42885;49.754;18.636;2022-12-20T15:36:08;49.00;;;25.65;;
56991;SDS011;42885;49.754;18.636;2022-12-20T15:38:58;49.58;;;25.35;;
56991;SDS011;42885;49.754;18.636;2022-12-20T15:41:48;43.45;;;22.93;;
56991;SDS011;42885;49.754;18.636;2022-12-20T15:44:38;44.58;;;23.05;;
56991;SDS011;42885;49.754;18.636;2022-12-20T15:47:28;41.47;;;22.20;;
56991;SDS011;42885;49.754;18.636;2022-12-20T15:50:17;43.75;;;22.77;;
56991;SDS011;42885;49.754;18.636;2022-12-20T15:53:08;43.40;;;22.73;;
56991;SDS011;42885;49.754;18.636;2022-12-20T15:55:58;45.98;;;24.12;;
56991;SDS011;42885;49.754;18.636;2022-12-20T15:58:47;48.40;;;25.65;;
56991;SDS011;42885;49.754;18.636;2022-12-20T16:01:39;46.35;;;25.27;;
56991;SDS011;42885;49.754;18.636;2022-12-20T16:04:28;45.80;;;25.48;;
56991;SDS011;42885;49.754;18.636;2022-12-20T16:07:17;43.55;;;23.77;;
56991;SDS011;42885;49.754;18.636;2022-12-20T16:10:08;44.33;;;24.00;;
56991;SDS011;42885;49.754;18.636;2022-12-20T16:12:59;53.20;;;28.15;;
56991;SDS011;42885;49.754;18.636;2022-12-20T16:15:48;49.85;;;26.37;;
56991;SDS011;42885;49.754;18.636;2022-12-20T16:18:39;55.08;;;29.45;;
56991;SDS011;42885;49.754;18.636;2022-12-20T16:21:30;47.55;;;26.73;;
56991;SDS011;42885;49.754;18.636;2022-12-20T16:24:21;43.63;;;24.57;;
56991;SDS011;42885;49.754;18.636;2022-12-20T16:27:10;45.48;;;24.37;;
56991;SDS011;42885;49.754;18.636;2022-12-20T16:30:00;50.90;;;26.52;;
56991;SDS011;42885;49.754;18.636;2022-12-20T16:32:49;53.35;;;27.75;;
56991;SDS011;42885;49.754;18.636;2022-12-20T16:35:39;49.38;;;26.85;;
56991;SDS011;42885;49.754;18.636;2022-12-20T16:38:29;53.42;;;27.48;;
56991;SDS011;42885;49.754;18.636;2022-12-20T16:41:20;51.37;;;26.63;;
56991;SDS011;42885;49.754;18.636;2022-12-20T16:44:17;66.37;;;35.13;;
56991;SDS011;42885;49.754;18.636;2022-12-20T16:47:02;54.67;;;28.12;;
56991;SDS011;42885;49.754;18.636;2022-12-20T16:49:52;58.40;;;31.82;;
56991;SDS011;42885;49.754;18.636;2022-12-20T16:52:42;70.10;;;33.98;;
56991;SDS011;42885;49.754;18.636;2022-12-20T16:55:31;67.85;;;33.63;;
56991;SDS011;42885;49.754;18.636;2022-12-20T16:58:21;68.07;;;34.67;;
56991;SDS011;42885;49.754;18.636;2022-12-20T17:01:17;65.03;;;34.43;;
56991;SDS011;42885;49.754;18.636;2022-12-20T17:04:17;59.15;;;30.92;;
56991;SDS011;42885;49.754;18.636;2022-12-20T17:07:02;59.98;;;29.10;;
56991;SDS011;42885;49.754;18.636;2022-12-20T17:09:51;57.80;;;27.30;;
56991;SDS011;42885;49.754;18.636;2022-12-20T17:12:41;51.00;;;26.23;;
56991;SDS011;42885;49.754;18.636;2022-12-20T17:15:32;51.83;;;26.50;;
56991;SDS011;42885;49.754;18.636;2022-12-20T17:18:23;55.63;;;28.80;;
56991;SDS011;42885;49.754;18.636;2022-12-20T17:21:20;57.05;;;28.57;;
56991;SDS011;42885;49.754;18.636;2022-12-20T17:24:18;56.58;;;28.15;;
56991;SDS011;42885;49.754;18.636;2022-12-20T17:27:09;56.90;;;29.63;;
56991;SDS011;42885;49.754;18.636;2022-12-20T17:29:59;54.63;;;26.80;;
56991;SDS011;42885;49.754;18.636;2022-12-20T17:32:49;59.33;;;29.32;;
56991;SDS011;42885;49.754;18.636;2022-12-20T17:35:40;53.75;;;27.85;;
56991;SDS011;42885;49.754;18.636;2022-12-20T17:38:29;50.10;;;26.52;;
56991;SDS011;42885;49.754;18.636;2022-12-20T17:41:22;48.27;;;25.27;;
56991;SDS011;42885;49.754;18.636;2022-12-20T17:44:16;52.43;;;26.37;;
56991;SDS011;42885;49.754;18.636;2022-12-20T17:47:07;56.63;;;28.12;;
56991;SDS011;42885;49.754;18.636;2022-12-20T17:49:57;58.90;;;28.87;;